Temp: 13.7°C   Baro: 1022.6mb
  Wind: 2.0mph   Dir: ENE (58°)
  Rain: 0.0mm (0.0mm/hr)
  Sun: 0W/m2  Humidity: 77%

Historic data

Bath Spa Weather Station Historical Data
Daily Summary for March 17, 2023 Units:  Metric    English   Both
Daily Weekly Monthly Yearly Custom
  High: Low: Average:
Temperature: 14.7 °C 8.9 °C 11.3 °C
Dew Point: 10.2 °C 7.8 °C 9.1 °C
Humidity: 94% 68.6% 87%
Wind Speed: 17.2km/h 0km/h 5.8km/h
Wind Gust: 32.2km/h - -
Wind- - South
Pressure: 1003.6 hPa 1001.9 hPa -
Precipitation: 1.52 mm    
Historical Graphs
 
 
Tabular Data for March 17, 2023
Time Temperature Dew Point Pressure Wind Wind Speed Wind Gust Humidity Rainfall Rate (Hourly) solar
00:09 10.3 °C 9.4 °C 1002.9 hPa WSW 3.4 km/h 9.7 km/h 94% 0 mm 0 W/m2
00:14 10.2 °C 9.2 °C 1002.9 hPa WSW 1.4 km/h 3.2 km/h 93.2% 0 mm 0 W/m2
00:19 10.2 °C 9.1 °C 1002.9 hPa WSW 3.1 km/h 4.8 km/h 93% 0 mm 0 W/m2
00:24 10.1 °C 9 °C 1002.9 hPa SSW 4.8 km/h 11.3 km/h 93% 0 mm 0 W/m2
00:29 10.1 °C 9 °C 1002.9 hPa SSW 2.9 km/h 9.7 km/h 93% 0 mm 0 W/m2
00:34 10.1 °C 8.9 °C 1002.9 hPa South 3.2 km/h 9.7 km/h 93% 0 mm 0 W/m2
00:39 10.1 °C 9 °C 1002.9 hPa SSW 3.9 km/h 11.3 km/h 93% 0 mm 0 W/m2
00:44 10.1 °C 8.9 °C 1002.9 hPa SSW 0.3 km/h 3.2 km/h 93% 0 mm 0 W/m2
00:49 9.9 °C 8.8 °C 1002.9 hPa SSW 0.8 km/h 3.2 km/h 93% 0 mm 0 W/m2
00:54 9.8 °C 8.7 °C 1002.9 hPa SSW 1.3 km/h 4.8 km/h 93% 0 mm 0 W/m2
00:59 9.7 °C 8.7 °C 1002.9 hPa SSW 1.9 km/h 4.8 km/h 93% 0 mm 0 W/m2
01:04 9.7 °C 8.6 °C 1002.9 hPa South 3.1 km/h 6.4 km/h 93% 0 mm 0 W/m2
01:09 9.7 °C 8.6 °C 1002.9 hPa SE 4.3 km/h 8 km/h 93% 0 mm 0 W/m2
01:14 9.8 °C 8.7 °C 1002.6 hPa SSE 2.1 km/h 8 km/h 93% 0 mm 0 W/m2
01:19 9.7 °C 8.6 °C 1002.6 hPa SSE 0.8 km/h 3.2 km/h 93% 0 mm 0 W/m2
01:24 9.5 °C 8.4 °C 1002.9 hPa South 1.3 km/h 4.8 km/h 93% 0 mm 0 W/m2
01:29 9.6 °C 8.5 °C 1002.9 hPa SSE 2.3 km/h 12.9 km/h 93% 0 mm 0 W/m2
01:34 9.8 °C 8.7 °C 1002.9 hPa SW 5.8 km/h 12.9 km/h 93% 0 mm 0 W/m2
01:39 9.8 °C 8.7 °C 1002.9 hPa WSW 2.7 km/h 9.7 km/h 93% 0 mm 0 W/m2
01:44 9.9 °C 8.8 °C 1002.6 hPa SSW 3.7 km/h 16.1 km/h 93% 0 mm 0 W/m2
01:49 9.9 °C 8.8 °C 1002.6 hPa SW 0.8 km/h 4.8 km/h 93% 0 mm 0 W/m2
01:54 9.8 °C 8.7 °C 1002.6 hPa SW 2.3 km/h 8 km/h 93% 0 mm 0 W/m2
01:59 9.8 °C 8.7 °C 1002.3 hPa WSW 2.6 km/h 8 km/h 93% 0 mm 0 W/m2
02:04 9.8 °C 8.7 °C 1002.3 hPa WSW 1.4 km/h 6.4 km/h 93% 0 mm 0 W/m2
02:09 9.8 °C 8.7 °C 1002.6 hPa SW 3.2 km/h 11.3 km/h 93% 0 mm 0 W/m2
02:14 9.8 °C 8.7 °C 1002.6 hPa South 0.8 km/h 3.2 km/h 93% 0 mm 0 W/m2
02:19 9.7 °C 8.6 °C 1002.3 hPa South 2.6 km/h 4.8 km/h 93% 0 mm 0 W/m2
02:24 9.6 °C 8.5 °C 1002.3 hPa South 1.4 km/h 4.8 km/h 93% 0 mm 0 W/m2
02:29 9.6 °C 8.4 °C 1002.3 hPa Calm   3.2 km/h 93% 0 mm 0 W/m2
02:34 9.6 °C 8.4 °C 1002.6 hPa ESE 1.9 km/h 8 km/h 93% 0 mm 0 W/m2
02:39 9.6 °C 8.5 °C 1002.6 hPa ESE 1.3 km/h 6.4 km/h 93% 0 mm 0 W/m2
02:44 9.6 °C 8.5 °C 1002.6 hPa ESE 2.9 km/h 6.4 km/h 93% 0 mm 0 W/m2
02:49 9.7 °C 8.6 °C 1002.6 hPa ESE 3.1 km/h 6.4 km/h 93% 0 mm 0 W/m2
02:54 9.6 °C 8.5 °C 1002.3 hPa East 4 km/h 6.4 km/h 93% 0 mm 0 W/m2
02:59 9.7 °C 8.6 °C 1002.3 hPa NE 4.3 km/h 9.7 km/h 93% 0 mm 0 W/m2
03:04 9.7 °C 8.6 °C 1002.6 hPa NE 0.6 km/h 3.2 km/h 93% 0 mm 0 W/m2
03:09 9.7 °C 8.6 °C 1002.3 hPa NE 2.4 km/h 4.8 km/h 93% 0 mm 0 W/m2
03:14 9.7 °C 8.6 °C 1002.3 hPa North 2.9 km/h 8 km/h 93% 0 mm 0 W/m2
03:19 9.8 °C 8.7 °C 1002.3 hPa NW 3.9 km/h 9.7 km/h 93% 0 mm 0 W/m2
03:24 9.9 °C 8.8 °C 1002.3 hPa NW 1.9 km/h 9.7 km/h 93% 0 mm 0 W/m2
03:29 9.9 °C 8.8 °C 1002.3 hPa NW 1.4 km/h 6.4 km/h 93% 0 mm 0 W/m2
03:34 9.9 °C 8.8 °C 1002.3 hPa NW 1 km/h 3.2 km/h 93% 0 mm 0 W/m2
03:39 9.9 °C 8.8 °C 1002.3 hPa NW 2.1 km/h 4.8 km/h 93% 0 mm 0 W/m2
03:44 9.9 °C 8.8 °C 1002.3 hPa NW 1.9 km/h 3.2 km/h 93% 0 mm 0 W/m2
03:49 9.8 °C 8.7 °C 1001.9 hPa NW 0.8 km/h 3.2 km/h 93% 0 mm 0 W/m2
03:54 9.8 °C 8.7 °C 1001.9 hPa Calm   1.6 km/h 93% 0 mm 0 W/m2
03:59 9.8 °C 8.7 °C 1002.3 hPa Calm     93% 0 mm 0 W/m2
04:04 9.8 °C 8.7 °C 1002.3 hPa Calm     93% 0 mm 0 W/m2
04:09 9.8 °C 8.7 °C 1002.3 hPa Calm     93% 0 mm 0 W/m2
04:14 9.8 °C 8.7 °C 1002.3 hPa NW 1.9 km/h 3.2 km/h 93% 0 mm 0 W/m2
04:19 9.7 °C 8.6 °C 1002.3 hPa NW 2.1 km/h 4.8 km/h 93% 0 mm 0 W/m2
04:24 9.7 °C 8.6 °C 1002.3 hPa NW 1.3 km/h 3.2 km/h 93% 0 mm 0 W/m2
04:29 9.6 °C 8.5 °C 1002.3 hPa NW 1.3 km/h 3.2 km/h 93% 0 mm 0 W/m2
04:34 9.6 °C 8.5 °C 1002.3 hPa NW 1.4 km/h 3.2 km/h 93% 0 mm 0 W/m2
04:39 9.6 °C 8.5 °C 1002.3 hPa NW 0.3 km/h 3.2 km/h 93% 0 mm 0 W/m2
04:44 9.6 °C 8.5 °C 1002.3 hPa NW 0.6 km/h 3.2 km/h 93% 0 mm 0 W/m2
04:49 9.6 °C 8.4 °C 1002.3 hPa NW 0.8 km/h 3.2 km/h 93% 0 mm 0 W/m2
04:54 9.6 °C 8.5 °C 1002.3 hPa NW 1.9 km/h 4.8 km/h 93% 0 mm 0 W/m2
04:59 9.6 °C 8.5 °C 1002.3 hPa NW 2.3 km/h 4.8 km/h 93% 0 mm 0 W/m2
05:04 9.4 °C 8.3 °C 1002.3 hPa WNW 2.1 km/h 6.4 km/h 93% 0 mm 0 W/m2
05:09 9.4 °C 8.3 °C 1002.3 hPa SSW 1.9 km/h 6.4 km/h 93% 0 mm 0 W/m2
05:14 9.4 °C 8.3 °C 1002.3 hPa SSW 3.2 km/h 4.8 km/h 93% 0 mm 0 W/m2
05:19 9.3 °C 8.2 °C 1002.3 hPa SSW 2.1 km/h 4.8 km/h 93% 0 mm 0 W/m2
05:24 9.3 °C 8.2 °C 1002.3 hPa SSW 2.7 km/h 6.4 km/h 93% 0 mm 0 W/m2
05:29 9.3 °C 8.2 °C 1002.3 hPa SSW 2.1 km/h 4.8 km/h 93% 0 mm 0 W/m2
05:34 9.2 °C 8.1 °C 1002.3 hPa SSW 1 km/h 6.4 km/h 93% 0 mm 0 W/m2
05:39 9.2 °C 8.1 °C 1001.9 hPa SSW 2.1 km/h 3.2 km/h 93% 0 mm 0 W/m2
05:44 9.1 °C 8 °C 1002.3 hPa SSW 1.9 km/h 4.8 km/h 93% 0 mm 0 W/m2
05:49 9.1 °C 7.9 °C 1002.3 hPa SSW 3.2 km/h 6.4 km/h 93% 0 mm 0 W/m2
05:54 9 °C 7.9 °C 1002.3 hPa SSW 1.4 km/h 4.8 km/h 93% 0 mm 0 W/m2
05:59 8.9 °C 7.8 °C 1002.3 hPa SSW 1.4 km/h 4.8 km/h 93% 0 mm 0 W/m2
06:04 8.9 °C 7.8 °C 1002.3 hPa South 3.5 km/h 8 km/h 93% 0 mm 0 W/m2
06:09 9 °C 7.9 °C 1002.3 hPa SSE 3.9 km/h 8 km/h 93% 0 mm 0 W/m2
06:14 8.9 °C 7.8 °C 1002.3 hPa SSE 3.2 km/h 6.4 km/h 93% 0 mm 0 W/m2
06:19 8.9 °C 7.8 °C 1002.3 hPa SSE 1 km/h 6.4 km/h 93% 0 mm 0 W/m2
06:24 8.9 °C 7.8 °C 1002.3 hPa SSE 2.6 km/h 4.8 km/h 93% 0 mm 0 W/m2
06:29 8.9 °C 7.8 °C 1002.3 hPa SSE 1.4 km/h 6.4 km/h 93% 0 mm 0 W/m2
06:34 9 °C 7.9 °C 1002.3 hPa SSE 2.7 km/h 8 km/h 93% 0 mm 9 W/m2
06:39 9.1 °C 8 °C 1002.3 hPa SE 4 km/h 8 km/h 93% 0 mm 14 W/m2
06:44 9.1 °C 8 °C 1002.3 hPa SE 2.7 km/h 9.7 km/h 93% 0 mm 19 W/m2
06:49 9.1 °C 8 °C 1002.3 hPa SE 3.9 km/h 8 km/h 93% 0 mm 19 W/m2
06:54 9.2 °C 8.1 °C 1002.6 hPa SSE 4.7 km/h 9.7 km/h 93% 0 mm 18 W/m2
06:59 9.2 °C 8.1 °C 1002.6 hPa South 5.6 km/h 11.3 km/h 93% 0 mm 23 W/m2
07:04 9.2 °C 8.1 °C 1002.6 hPa South 4 km/h 11.3 km/h 93% 0 mm 32 W/m2
07:09 9.3 °C 8.2 °C 1002.6 hPa South 6 km/h 16.1 km/h 93% 0 mm 35 W/m2
07:14 9.4 °C 8.3 °C 1002.6 hPa South 4.7 km/h 16.1 km/h 93% 0 mm 46 W/m2
07:19 9.4 °C 8.3 °C 1002.6 hPa SSE 5.8 km/h 12.9 km/h 93% 0 mm 49 W/m2
07:24 9.4 °C 8.3 °C 1002.6 hPa South 3.4 km/h 8 km/h 93% 0 mm 53 W/m2
07:29 9.4 °C 8.3 °C 1002.6 hPa South 4.3 km/h 8 km/h 93% 0 mm 62 W/m2
07:34 9.4 °C 8.3 °C 1002.6 hPa South 6.1 km/h 12.9 km/h 93% 0 mm 137 W/m2
07:39 9.6 °C 8.5 °C 1002.6 hPa SSE 5.8 km/h 11.3 km/h 93% 0 mm 137 W/m2
07:44 9.6 °C 8.5 °C 1002.6 hPa South 5.8 km/h 12.9 km/h 93% 0 mm 148 W/m2
07:49 9.7 °C 8.6 °C 1002.6 hPa SSE 5.5 km/h 12.9 km/h 93% 0 mm 95 W/m2
07:54 9.7 °C 8.6 °C 1002.6 hPa South 3.7 km/h 9.7 km/h 93% 0 mm 104 W/m2
07:59 9.8 °C 8.7 °C 1002.9 hPa South 3.1 km/h 8 km/h 93% 0 mm 105 W/m2
08:04 9.8 °C 8.8 °C 1002.6 hPa South 1.8 km/h 8 km/h 93% 0 mm 95 W/m2
08:09 9.9 °C 8.7 °C 1002.6 hPa South 3.2 km/h 8 km/h 92.2% 0 mm 100 W/m2
08:14 10 °C 8.8 °C 1002.6 hPa South 2.9 km/h 4.8 km/h 92% 0 mm 128 W/m2
08:19 10.1 °C 9 °C 1002.6 hPa South 4.2 km/h 8 km/h 92.8% 0 mm 134 W/m2
08:24 10.2 °C 9 °C 1002.6 hPa SSE 4.8 km/h 11.3 km/h 92.3% 0 mm 125 W/m2
08:29 10.3 °C 9.1 °C 1002.6 hPa SSE 2.9 km/h 8 km/h 92% 0 mm 76 W/m2
08:34 10.3 °C 9.1 °C 1002.6 hPa South 5.1 km/h 11.3 km/h 92% 0 mm 76 W/m2
08:39 10.4 °C 9.2 °C 1002.6 hPa South 3.9 km/h 6.4 km/h 92% 0 mm 77 W/m2
08:44 10.4 °C 9.2 °C 1002.6 hPa SSW 3.5 km/h 9.7 km/h 92% 0 mm 86 W/m2
08:49 10.5 °C 9.3 °C 1002.6 hPa SSW 3.2 km/h 6.4 km/h 92% 0 mm 113 W/m2
08:54 10.6 °C 9.4 °C 1002.6 hPa SSW 2.9 km/h 6.4 km/h 92% 0 mm 135 W/m2
08:59 10.7 °C 9.5 °C 1002.9 hPa SSW 2.7 km/h 6.4 km/h 92% 0 mm 169 W/m2
09:04 10.8 °C 9.6 °C 1002.9 hPa SSW 4 km/h 8 km/h 92% 0 mm 195 W/m2
09:09 10.9 °C 9.5 °C 1002.9 hPa South 3.9 km/h 11.3 km/h 91.2% 0 mm 232 W/m2
09:14 11.1 °C 9.7 °C 1002.9 hPa South 3.4 km/h 8 km/h 91.4% 0 mm 162 W/m2
09:19 11.2 °C 9.8 °C 1002.9 hPa SSE 4.5 km/h 12.9 km/h 91% 0 mm 371 W/m2
09:24 11.3 °C 9.9 °C 1002.9 hPa South 5.5 km/h 12.9 km/h 91% 0 mm 439 W/m2
09:29 11.6 °C 10.1 °C 1002.9 hPa South 10.3 km/h 19.3 km/h 90.6% 0 mm 540 W/m2
09:34 11.7 °C 10.1 °C 1002.9 hPa SE 7.4 km/h 19.3 km/h 90% 0 mm 241 W/m2
09:39 11.7 °C 10 °C 1002.9 hPa SSE 9.2 km/h 17.7 km/h 89.4% 0 mm 274 W/m2
09:44 11.7 °C 9.9 °C 1002.9 hPa South 7.2 km/h 16.1 km/h 89% 0 mm 232 W/m2
09:49 11.8 °C 10 °C 1002.9 hPa South 6.9 km/h 12.9 km/h 89% 0 mm 190 W/m2
09:54 11.8 °C 10.1 °C 1002.9 hPa SSW 6.3 km/h 14.5 km/h 89% 0 mm 162 W/m2
09:59 11.9 °C 10 °C 1002.9 hPa SSW 5.3 km/h 12.9 km/h 88% 0 mm 206 W/m2
10:04 11.9 °C 10.1 °C 1002.9 hPa South 4.8 km/h 12.9 km/h 88% 0 mm 239 W/m2
10:09 11.8 °C 9.9 °C 1002.9 hPa South 7.6 km/h 19.3 km/h 88% 0 mm 243 W/m2
10:14 11.8 °C 9.9 °C 1002.9 hPa SSE 10.5 km/h 17.7 km/h 88% 0 mm 258 W/m2
10:19 11.9 °C 10 °C 1002.9 hPa SSE 6.4 km/h 17.7 km/h 88% 0 mm 585 W/m2
10:24 12 °C 10.1 °C 1002.9 hPa South 6.4 km/h 11.3 km/h 87.8% 0 mm 431 W/m2
10:29 12.1 °C 10.1 °C 1002.9 hPa SSE 8 km/h 12.9 km/h 87.2% 0 mm 540 W/m2
10:34 12.2 °C 10.1 °C 1002.6 hPa SE 5.6 km/h 17.7 km/h 87% 0 mm 527 W/m2
10:39 12.3 °C 10.2 °C 1002.9 hPa South 10 km/h 17.7 km/h 86.4% 0 mm 527 W/m2
10:44 12.4 °C 10.2 °C 1002.9 hPa SSW 4.5 km/h 12.9 km/h 86% 0 mm 410 W/m2
10:49 12.6 °C 10.2 °C 1002.9 hPa SSW 7.6 km/h 14.5 km/h 85.4% 0 mm 385 W/m2
10:54 12.7 °C 10.1 °C 1002.9 hPa South 9.7 km/h 16.1 km/h 84.4% 0 mm 255 W/m2
10:59 12.7 °C 10 °C 1002.9 hPa SSW 6.4 km/h 17.7 km/h 83.4% 0 mm 292 W/m2
11:04 12.8 °C 9.8 °C 1002.9 hPa SSW 7.4 km/h 17.7 km/h 82% 0 mm 297 W/m2
11:09 13.1 °C 9.9 °C 1002.9 hPa SSW 7.6 km/h 16.1 km/h 81.2% 0 mm 740 W/m2
11:14 13.4 °C 10 °C 1002.6 hPa SSW 8 km/h 16.1 km/h 80.2% 0 mm 712 W/m2
11:19 13.7 °C 10.2 °C 1002.6 hPa SW 6.8 km/h 16.1 km/h 79.5% 0 mm 842 W/m2
11:24 13.8 °C 10.1 °C 1002.9 hPa SSW 8.4 km/h 16.1 km/h 78.4% 0 mm 805 W/m2
11:29 13.8 °C 10 °C 1002.9 hPa South 10 km/h 20.9 km/h 78.2% 0 mm 791 W/m2
11:34 13.7 °C 9.9 °C 1002.9 hPa South 9.7 km/h 16.1 km/h 78% 0 mm 596 W/m2
11:39 13.6 °C 9.8 °C 1002.9 hPa SW 11.9 km/h 22.5 km/h 78% 0 mm 288 W/m2
11:44 13.8 °C 9.9 °C 1002.6 hPa SSW 9.8 km/h 22.5 km/h 77.8% 0 mm 687 W/m2
11:49 13.9 °C 9.8 °C 1002.6 hPa South 13.2 km/h 22.5 km/h 76.6% 0 mm 668 W/m2
11:54 13.9 °C 9.7 °C 1002.6 hPa SSW 12.6 km/h 24.1 km/h 75.8% 0 mm 715 W/m2
11:59 13.8 °C 9.5 °C 1002.9 hPa SSW 14.8 km/h 25.7 km/h 75.2% 0 mm 689 W/m2
12:04 13.8 °C 9.3 °C 1002.9 hPa SSW 11.9 km/h 29 km/h 74.8% 0 mm 439 W/m2
12:09 13.8 °C 9.2 °C 1002.9 hPa SSW 12.6 km/h 29 km/h 74% 0 mm 454 W/m2
12:14 14 °C 9.4 °C 1002.9 hPa South 16.1 km/h 27.4 km/h 74% 0 mm 872 W/m2
12:19 14.3 °C 9.5 °C 1002.9 hPa South 10.9 km/h 22.5 km/h 73% 0 mm 828 W/m2
12:24 14.7 °C 9.7 °C 1002.9 hPa SSW 9.2 km/h 19.3 km/h 72.3% 0 mm 780 W/m2
12:29 14.5 °C 9.4 °C 1002.9 hPa SSW 12.9 km/h 24.1 km/h 71.8% 0 mm 838 W/m2
12:34 14.6 °C 9.6 °C 1002.6 hPa South 11.3 km/h 16.1 km/h 72% 0 mm 795 W/m2
12:39 14.6 °C 9.6 °C 1002.6 hPa South 13.2 km/h 22.5 km/h 71.8% 0 mm 728 W/m2
12:44 14.4 °C 9.1 °C 1002.6 hPa SSW 14.2 km/h 30.6 km/h 70.6% 0 mm 809 W/m2
12:49 14.2 °C 9 °C 1002.6 hPa SSW 12.6 km/h 27.4 km/h 71% 0 mm 436 W/m2
12:54 14.4 °C 9.1 °C 1002.6 hPa SSW 14.8 km/h 25.7 km/h 70.6% 0 mm 336 W/m2
12:59 14.3 °C 8.7 °C 1002.6 hPa South 10.3 km/h 25.7 km/h 68.6% 0 mm 406 W/m2
13:04 14.3 °C 8.7 °C 1002.6 hPa SSW 10.8 km/h 22.5 km/h 68.8% 0 mm 499 W/m2
13:09 14.5 °C 8.9 °C 1002.6 hPa South 9.2 km/h 20.9 km/h 69.2% 0 mm 499 W/m2
13:14 14.2 °C 8.9 °C 1002.6 hPa South 12.6 km/h 27.4 km/h 70.6% 0 mm 315 W/m2
13:19 14.1 °C 8.9 °C 1002.6 hPa South 8.7 km/h 27.4 km/h 71.6% 0 mm 374 W/m2
13:24 14 °C 9 °C 1002.6 hPa SSW 17.2 km/h 27.4 km/h 72% 0 mm 366 W/m2
13:29 13.7 °C 9 °C 1002.6 hPa SSW 7.9 km/h 27.4 km/h 73.6% 0 mm 336 W/m2
13:34 13.8 °C 9.2 °C 1002.6 hPa SW 7.6 km/h 16.1 km/h 73.8% 0 mm 295 W/m2
13:39 13.8 °C 9.2 °C 1002.6 hPa SSW 9 km/h 17.7 km/h 74% 0 mm 190 W/m2
13:44 14 °C 9.3 °C 1002.6 hPa SSW 9.5 km/h 17.7 km/h 73.8% 0 mm 817 W/m2
13:49 14.2 °C 9.3 °C 1002.3 hPa SSW 10.6 km/h 19.3 km/h 73% 0 mm 775 W/m2
13:54 14.1 °C 9.4 °C 1002.3 hPa SSW 11.9 km/h 29 km/h 73.6% 0 mm 218 W/m2
13:59 13.8 °C 9.2 °C 1002.3 hPa SSW 10.3 km/h 29 km/h 73.8% 0 mm 290 W/m2
14:04 13.7 °C 9.3 °C 1002.3 hPa South 12.2 km/h 22.5 km/h 75% 0 mm 714 W/m2
14:09 13.8 °C 9.5 °C 1002.3 hPa SSW 10.6 km/h 25.7 km/h 75.2% 0 mm 654 W/m2
14:14 13.9 °C 9.6 °C 1002.3 hPa South 11.4 km/h 20.9 km/h 75.4% 0 mm 638 W/m2
14:19 13.9 °C 9.7 °C 1002.3 hPa SSW 8 km/h 16.1 km/h 75.8% 0 mm 246 W/m2
14:24 14 °C 9.8 °C 1002.3 hPa SW 8.9 km/h 22.5 km/h 76% 0 mm 172 W/m2
14:29 13.8 °C 9.6 °C 1002.3 hPa South 8.4 km/h 22.5 km/h 75.6% 0 mm 160 W/m2
14:34 13.8 °C 9.7 °C 1002.3 hPa South 7.1 km/h 19.3 km/h 76.4% 0 mm 257 W/m2
14:39 13.8 °C 9.8 °C 1002.3 hPa South 12.2 km/h 20.9 km/h 77% 0 mm 257 W/m2
14:44 13.7 °C 9.7 °C 1002.3 hPa South 12.6 km/h 22.5 km/h 77% 0 mm 297 W/m2
14:49 13.8 °C 9.9 °C 1002.3 hPa SW 13.5 km/h 27.4 km/h 77.4% 0 mm 598 W/m2
14:54 14.2 °C 10.2 °C 1002.3 hPa SSW 10.3 km/h 20.9 km/h 77% 0 mm 531 W/m2
14:59 14.3 °C 10.1 °C 1002.3 hPa SSW 9.2 km/h 20.9 km/h 76% 0 mm 563 W/m2
15:04 14.4 °C 10.1 °C 1002.3 hPa South 10.9 km/h 22.5 km/h 75.4% 0 mm 499 W/m2
15:09 14.2 °C 9.8 °C 1002.3 hPa SSW 14.2 km/h 22.5 km/h 75% 0 mm 271 W/m2
15:14 13.8 °C 9.4 °C 1002.3 hPa SSW 10.6 km/h 32.2 km/h 75.4% 0 mm 251 W/m2
15:19 13.7 °C 9.4 °C 1002.3 hPa SSW 14.8 km/h 27.4 km/h 75.8% 0 mm 214 W/m2
15:24 13.7 °C 9.4 °C 1002.3 hPa South 11.4 km/h 20.9 km/h 76% 0 mm 105 W/m2
15:29 13.6 °C 9.6 °C 1002.3 hPa South 9 km/h 25.7 km/h 77% 0 mm 118 W/m2
15:34 13.3 °C 9.5 °C 1002.3 hPa SSE 9.7 km/h 29 km/h 78% 0 mm 255 W/m2
15:39 13.2 °C 9.6 °C 1002.6 hPa South 9.3 km/h 22.5 km/h 79% 0 mm 301 W/m2
15:44 13.3 °C 9.7 °C 1002.3 hPa SSW 11.6 km/h 20.9 km/h 79% 0 mm 471 W/m2
15:49 13.4 °C 9.8 °C 1002.3 hPa SSW 9.7 km/h 24.1 km/h 79% 0 mm 253 W/m2
15:54 13.4 °C 9.8 °C 1002.3 hPa South 10.3 km/h 19.3 km/h 79% 0 mm 156 W/m2
15:59 13.2 °C 9.4 °C 1002.3 hPa SSE 10.6 km/h 27.4 km/h 78% 0 mm 91 W/m2
16:04 13.2 °C 9.4 °C 1002.3 hPa SSW 10.1 km/h 19.3 km/h 78% 0 mm 97 W/m2
16:09 13.1 °C 9.4 °C 1002.3 hPa SSW 5.3 km/h 19.3 km/h 78% 0 mm 114 W/m2
16:14 13.1 °C 9.4 °C 1002.3 hPa SSE 7.9 km/h 19.3 km/h 78% 0 mm 90 W/m2
16:19 13.1 °C 9.5 °C 1002.3 hPa South 5.6 km/h 14.5 km/h 78.8% 0 mm 63 W/m2
16:24 13.1 °C 9.5 °C 1002.3 hPa South 10 km/h 17.7 km/h 79% 0 mm 100 W/m2
16:29 12.9 °C 9.3 °C 1002.3 hPa South 9.7 km/h 17.7 km/h 79% 0 mm 155 W/m2
16:34 12.8 °C 9.2 °C 1002.3 hPa South 7.6 km/h 17.7 km/h 79% 0 mm 127 W/m2
16:39 12.8 °C 9.2 °C 1002.3 hPa South 7.6 km/h 12.9 km/h 79% 0 mm 98 W/m2
16:44 12.8 °C 9.2 °C 1002.3 hPa SSW 8.5 km/h 16.1 km/h 79% 0 mm 90 W/m2
16:49 12.8 °C 9.2 °C 1002.3 hPa South 10 km/h 19.3 km/h 79% 0 mm 93 W/m2
16:54 12.8 °C 9.2 °C 1002.3 hPa South 5.8 km/h 19.3 km/h 79% 0 mm 95 W/m2
16:59 12.8 °C 9.2 °C 1002.3 hPa SSW 10.1 km/h 19.3 km/h 79% 0 mm 98 W/m2
17:04 12.7 °C 9.2 °C 1002.3 hPa SSW 6.4 km/h 14.5 km/h 79% 0 mm 102 W/m2
17:09 12.8 °C 9.3 °C 1002.3 hPa SSW 4.5 km/h 11.3 km/h 79.4% 0 mm 95 W/m2
17:14 12.8 °C 9.4 °C 1002.3 hPa South 6 km/h 17.7 km/h 80% 0 mm 93 W/m2
17:19 12.8 °C 9.4 °C 1002.3 hPa SSW 6.1 km/h 16.1 km/h 80% 0 mm 84 W/m2
17:24 12.8 °C 9.4 °C 1002.6 hPa South 9.5 km/h 17.7 km/h 80% 0 mm 70 W/m2
17:29 12.7 °C 9.3 °C 1002.6 hPa South 6.4 km/h 17.7 km/h 80% 0 mm 56 W/m2
17:34 12.7 °C 9.3 °C 1002.6 hPa South 7.7 km/h 12.9 km/h 80% 0 mm 40 W/m2
17:39 12.6 °C 9.2 °C 1002.6 hPa South 9 km/h 17.7 km/h 80% 0 mm 44 W/m2
17:44 12.6 °C 9.2 °C 1002.6 hPa SSE 7.2 km/h 14.5 km/h 80% 0 mm 39 W/m2
17:49 12.6 °C 9.2 °C 1002.6 hPa South 9.3 km/h 20.9 km/h 80% 0 mm 33 W/m2
17:54 12.5 °C 9.1 °C 1002.9 hPa SSE 8 km/h 20.9 km/h 80% 0 mm 28 W/m2
17:59 12.4 °C 9 °C 1002.9 hPa South 7.9 km/h 14.5 km/h 80% 0 mm 26 W/m2
18:04 12.4 °C 9.1 °C 1002.9 hPa SSW 6.4 km/h 16.1 km/h 80.2% 0 mm 19 W/m2
18:09 12.4 °C 9.2 °C 1002.9 hPa South 6 km/h 14.5 km/h 81% 0 mm 12 W/m2
18:14 12.4 °C 9.2 °C 1002.9 hPa South 5 km/h 9.7 km/h 81% 0 mm 9 W/m2
18:19 12.3 °C 9.1 °C 1002.6 hPa South 3.9 km/h 9.7 km/h 81% 0 mm 5 W/m2
18:24 12.3 °C 9.1 °C 1002.6 hPa South 2.7 km/h 9.7 km/h 81% 0 mm 0 W/m2
18:29 12.3 °C 9.1 °C 1002.6 hPa SSE 5.1 km/h 8 km/h 81% 0 mm 0 W/m2
18:34 12.2 °C 9 °C 1002.6 hPa SSE 5.6 km/h 9.7 km/h 81% 0 mm 0 W/m2
18:39 12.2 °C 9.2 °C 1002.6 hPa SE 6 km/h 14.5 km/h 82% 0 mm 0 W/m2
18:44 12.2 °C 9.2 °C 1002.6 hPa SSE 6.9 km/h 12.9 km/h 82% 0 mm 0 W/m2
18:49 12.1 °C 9.1 °C 1002.6 hPa SE 5.6 km/h 11.3 km/h 82.4% 0 mm 0 W/m2
18:54 11.9 °C 9.1 °C 1002.9 hPa SE 4.3 km/h 8 km/h 82.8% 0 mm 0 W/m2
18:59 11.9 °C 9.1 °C 1002.9 hPa SE 9.3 km/h 14.5 km/h 83% 0 mm 0 W/m2
19:04 11.8 °C 9.1 °C 1002.9 hPa SSE 7.1 km/h 12.9 km/h 83.4% 0 mm 0 W/m2
19:09 11.7 °C 9.1 °C 1002.9 hPa SSE 4.5 km/h 8 km/h 83.8% 0 mm 0 W/m2
19:14 11.8 °C 9.2 °C 1002.9 hPa SE 2.7 km/h 8 km/h 84% 0 mm 0 W/m2
19:19 11.7 °C 9.1 °C 1002.9 hPa SE 5.1 km/h 9.7 km/h 84% 0 mm 0 W/m2
19:24 11.7 °C 9.1 °C 1002.9 hPa SSE 7.7 km/h 11.3 km/h 84% 0 mm 0 W/m2
19:29 11.6 °C 9 °C 1002.9 hPa SSE 5.1 km/h 9.7 km/h 84% 0 mm 0 W/m2
19:34 11.6 °C 9 °C 1002.9 hPa SSE 5.3 km/h 9.7 km/h 84% 0 mm 0 W/m2
19:39 11.6 °C 9.1 °C 1002.9 hPa SSE 7.6 km/h 11.3 km/h 84.6% 0 mm 0 W/m2
19:44 11.6 °C 9.2 °C 1002.9 hPa SSE 6.8 km/h 12.9 km/h 85% 0 mm 0 W/m2
19:49 11.5 °C 9.1 °C 1002.9 hPa SSE 6.6 km/h 14.5 km/h 85% 0 mm 0 W/m2
19:54 11.4 °C 9 °C 1002.9 hPa South 6.6 km/h 11.3 km/h 85% 0 mm 0 W/m2
19:59 11.3 °C 8.9 °C 1002.9 hPa SE 6.4 km/h 11.3 km/h 85.8% 0 mm 0 W/m2
20:04 11.2 °C 8.9 °C 1002.9 hPa SSE 4 km/h 8 km/h 86.4% 0 mm 0 W/m2
20:09 11.1 °C 8.9 °C 1003.3 hPa SSE 3.4 km/h 8 km/h 87% 0.51 mm 0 W/m2
20:14 10.9 °C 8.9 °C 1003.3 hPa SSE 4.5 km/h 9.7 km/h 87.8% 0.51 mm 0 W/m2
20:19 10.8 °C 8.9 °C 1003.3 hPa SSE 4.7 km/h 8 km/h 88.2% 0.76 mm 0 W/m2
20:24 10.7 °C 9 °C 1003.3 hPa SSE 4.3 km/h 8 km/h 89% 0.76 mm 0 W/m2
20:29 10.7 °C 9 °C 1003.3 hPa SSE 3.4 km/h 12.9 km/h 89% 0.76 mm 0 W/m2
20:34 10.7 °C 9.1 °C 1003.3 hPa SE 8.7 km/h 14.5 km/h 90% 0.76 mm 0 W/m2
20:39 10.6 °C 9 °C 1003.3 hPa SSE 6.3 km/h 12.9 km/h 90% 0.76 mm 0 W/m2
20:44 10.6 °C 9 °C 1003.3 hPa SSE 4 km/h 9.7 km/h 90% 0.76 mm 0 W/m2
20:49 10.6 °C 9.1 °C 1003.3 hPa SE 6.4 km/h 12.9 km/h 90.2% 0.76 mm 0 W/m2
20:54 10.6 °C 9.2 °C 1003.3 hPa SE 10.5 km/h 14.5 km/h 91% 0.76 mm 0 W/m2
20:59 10.5 °C 9.1 °C 1003.3 hPa SSE 5.3 km/h 14.5 km/h 91% 0.76 mm 0 W/m2
21:04 10.5 °C 9.1 °C 1003.3 hPa SSE 5.6 km/h 9.7 km/h 91% 0.76 mm 0 W/m2
21:09 10.4 °C 9 °C 1003.3 hPa SSE 4.8 km/h 9.7 km/h 91% 0.76 mm 0 W/m2
21:14 10.4 °C 9 °C 1003.3 hPa SSE 4.3 km/h 11.3 km/h 91% 0.25 mm 0 W/m2
21:19 10.4 °C 9 °C 1003.3 hPa SSE 4 km/h 6.4 km/h 91% 0.25 mm 0 W/m2
21:24 10.4 °C 9 °C 1003.3 hPa SSE 5 km/h 9.7 km/h 91% 0 mm 0 W/m2
21:29 10.4 °C 9 °C 1003.3 hPa SSE 5.6 km/h 12.9 km/h 91% 0 mm 0 W/m2
21:34 10.4 °C 9.2 °C 1003.3 hPa SSE 3.9 km/h 11.3 km/h 91.8% 0 mm 0 W/m2
21:39 10.4 °C 9.2 °C 1003.3 hPa SSE 5 km/h 14.5 km/h 92% 0 mm 0 W/m2
21:44 10.4 °C 9.2 °C 1003.3 hPa SSE 7.4 km/h 12.9 km/h 92% 0 mm 0 W/m2
21:49 10.4 °C 9.2 °C 1003.3 hPa South 6.4 km/h 9.7 km/h 92% 0 mm 0 W/m2
21:54 10.4 °C 9.2 °C 1003.3 hPa SSE 5.3 km/h 9.7 km/h 92% 0 mm 0 W/m2
21:59 10.4 °C 9.2 °C 1003.3 hPa SSE 1.4 km/h 6.4 km/h 92% 0 mm 0 W/m2
22:04 10.4 °C 9.2 °C 1003.3 hPa South 5 km/h 9.7 km/h 92% 0 mm 0 W/m2
22:09 10.4 °C 9.2 °C 1003.3 hPa South 2.9 km/h 6.4 km/h 92% 0 mm 0 W/m2
22:14 10.4 °C 9.2 °C 1003.3 hPa SSE 5.1 km/h 9.7 km/h 92% 0 mm 0 W/m2
22:19 10.4 °C 9.2 °C 1003.3 hPa SSE 3.9 km/h 12.9 km/h 92% 0 mm 0 W/m2
22:24 10.4 °C 9.2 °C 1003.3 hPa SE 6 km/h 12.9 km/h 92% 0 mm 0 W/m2
22:29 10.4 °C 9.2 °C 1003.3 hPa SE 4.2 km/h 9.7 km/h 92% 0 mm 0 W/m2
22:34 10.4 °C 9.2 °C 1003.3 hPa SSE 3.2 km/h 8 km/h 92% 0 mm 0 W/m2
22:39 10.4 °C 9.2 °C 1003.3 hPa SSE 4 km/h 9.7 km/h 92% 0 mm 0 W/m2
22:44 10.4 °C 9.2 °C 1003.3 hPa SSE 3.9 km/h 8 km/h 92% 0 mm 0 W/m2
22:49 10.3 °C 9.2 °C 1003.3 hPa SSE 8.4 km/h 16.1 km/h 92% 0.25 mm 0 W/m2
22:54 10.3 °C 9.1 °C 1003.3 hPa SE 4.5 km/h 12.9 km/h 92% 0.25 mm 0 W/m2
22:59 10.3 °C 9.1 °C 1003.3 hPa SSE 3.4 km/h 12.9 km/h 92% 0.51 mm 0 W/m2
23:04 10.3 °C 9.1 °C 1003.3 hPa SE 3.9 km/h 11.3 km/h 92% 0.51 mm 0 W/m2
23:09 10.2 °C 9 °C 1003.3 hPa SSE 4.5 km/h 9.7 km/h 92% 0.51 mm 0 W/m2
23:14 10.2 °C 9 °C 1003.3 hPa SE 3.2 km/h 9.7 km/h 92% 0.51 mm 0 W/m2
23:19 10.2 °C 9 °C 1003.3 hPa South 2.9 km/h 11.3 km/h 92% 0.76 mm 0 W/m2
23:24 10.2 °C 9 °C 1003.3 hPa South 2.4 km/h 4.8 km/h 92% 0.76 mm 0 W/m2
23:29 10.2 °C 9 °C 1003.3 hPa SSE 2.4 km/h 9.7 km/h 92.2% 0.76 mm 0 W/m2
23:34 10.1 °C 9 °C 1003.6 hPa SE 3.4 km/h 9.7 km/h 92.8% 0.76 mm 0 W/m2
23:39 10.1 °C 9 °C 1003.3 hPa SE 3.7 km/h 9.7 km/h 93% 0.76 mm 0 W/m2
23:44 10.1 °C 9 °C 1003.3 hPa SE 3.5 km/h 6.4 km/h 93% 0.76 mm 0 W/m2
23:49 10.1 °C 9 °C 1003.3 hPa SE 4.5 km/h 8 km/h 93% 0.76 mm 0 W/m2
23:54 10.1 °C 9 °C 1003.6 hPa SE 5.6 km/h 9.7 km/h 93% 0.51 mm 0 W/m2
23:59 10.1 °C 9 °C 1003.6 hPa SSE 3.9 km/h 9.7 km/h 93% 0.51 mm 0 W/m2
Bath Spa Weather
Compliments of Weather Underground - 2 mb